Time;durP1;ratioP1;P1;durP2;ratioP2;P2;SDS_P1;SDS_P2;PMS_P1;PMS_P2;Temp;Humidity;BMP_temperature;BMP_pressure;BME280_temperature;BME280_humidity;BME280_pressure;Samples;Min_cycle;Max_cycle;Signal;HPM_P1;HPM_P2
2023/09/06 00:00:49;;;;;;;5.63;4.10;;;20.50;99.90;;;;;;5092178;28;20195;-44
2023/09/06 00:03:14;;;;;;;9.35;4.90;;;20.40;99.90;;;;;;5092245;28;20710;-43
2023/09/06 00:05:41;;;;;;;7.53;4.60;;;20.40;99.90;;;;;;5092380;28;20161;-43
2023/09/06 00:08:08;;;;;;;11.02;4.15;;;20.40;99.90;;;;;;5092411;28;20177;-43
2023/09/06 00:10:38;;;;;;;8.63;4.85;;;20.40;99.90;;;;;;5092614;28;20162;-44
2023/09/06 00:13:06;;;;;;;3.28;2.97;;;20.30;99.90;;;;;;5092794;28;20165;-44
2023/09/06 00:15:31;;;;;;;4.80;2.92;;;20.20;99.90;;;;;;5091106;28;20260;-44
2023/09/06 00:17:57;;;;;;;5.88;3.42;;;20.20;99.90;;;;;;5091899;28;20244;-43
2023/09/06 00:20:24;;;;;;;15.00;7.00;;;;;;;;;;5092000;28;20176;-43
2023/09/06 00:23:04;;;;;;;7.63;4.63;;;20.10;99.90;;;;;;5091836;28;20169;-43
2023/09/06 00:25:31;;;;;;;6.57;4.25;;;20.10;99.90;;;;;;5092141;28;20169;-43
2023/09/06 00:27:57;;;;;;;7.45;4.68;;;20.10;99.90;;;;;;5092136;28;20214;-44
2023/09/06 00:30:24;;;;;;;6.72;4.28;;;;;;;;;;5091796;28;20644;-43
2023/09/06 00:32:52;;;;;;;7.22;3.58;;;20.00;99.90;;;;;;5090540;28;20189;-43
2023/09/06 00:35:19;;;;;;;8.85;4.78;;;20.00;99.90;;;;;;5091708;28;20275;-43
2023/09/06 00:37:46;;;;;;;6.47;4.35;;;20.00;99.90;;;;;;5091786;28;20231;-43
2023/09/06 00:40:18;;;;;;;4.85;3.42;;;20.00;99.90;;;;;;5091849;28;20234;-43
2023/09/06 00:42:59;;;;;;;7.15;4.63;;;20.00;99.90;;;;;;5091696;28;20201;-43
2023/09/06 00:45:51;;;;;;;7.13;3.70;;;20.00;99.90;;;;;;5091463;28;20578;-43
2023/09/06 00:48:21;;;;;;;5.57;3.42;;;20.00;99.90;;;;;;5089239;28;20219;-43
2023/09/06 00:50:52;;;;;;;12.00;4.20;;;19.90;99.90;;;;;;5091271;28;20184;-43
2023/09/06 00:53:18;;;;;;;13.40;5.75;;;20.00;99.90;;;;;;5091314;28;20173;-43
2023/09/06 00:55:44;;;;;;;4.13;3.42;;;20.00;99.90;;;;;;5091767;28;20318;-43
2023/09/06 00:58:15;;;;;;;8.48;4.32;;;19.90;99.90;;;;;;5091517;28;20180;-43
2023/09/06 01:00:44;;;;;;;8.70;4.63;;;19.90;99.90;;;;;;5091324;28;20292;-43
2023/09/06 01:03:10;;;;;;;6.90;3.92;;;19.90;99.90;;;;;;5091384;28;20598;-43
2023/09/06 01:05:50;;;;;;;7.82;3.97;;;19.80;99.90;;;;;;5091745;28;20189;-43
2023/09/06 01:08:20;;;;;;;8.45;4.45;;;19.90;99.90;;;;;;5091428;28;20169;-44
2023/09/06 01:10:46;;;;;;;4.60;3.72;;;19.90;99.90;;;;;;5091436;28;20181;-43
2023/09/06 01:13:12;;;;;;;4.65;3.50;;;19.80;99.90;;;;;;5091295;28;20161;-43
2023/09/06 01:15:43;;;;;;;4.53;3.17;;;19.90;99.90;;;;;;5091301;28;20259;-44
2023/09/06 01:18:09;;;;;;;3.53;2.92;;;19.80;99.90;;;;;;5090024;28;20540;-43
2023/09/06 01:20:52;;;;;;;5.00;3.20;;;19.80;99.90;;;;;;5091549;28;20169;-43
2023/09/06 01:23:34;;;;;;;3.17;2.88;;;19.80;99.90;;;;;;5091043;28;20166;-43
2023/09/06 01:26:00;;;;;;;3.63;2.88;;;19.70;99.90;;;;;;5091090;28;20184;-43
2023/09/06 01:28:27;;;;;;;6.30;3.03;;;19.70;99.90;;;;;;5091447;28;20559;-43
2023/09/06 01:30:56;;;;;;;8.38;3.00;;;19.70;99.90;;;;;;5091387;28;20230;-43
2023/09/06 01:33:22;;;;;;;4.10;3.00;;;19.60;99.90;;;;;;5091142;28;20170;-43
2023/09/06 01:35:51;;;;;;;4.53;2.78;;;19.60;99.90;;;;;;5091209;28;20173;-43
2023/09/06 01:38:17;;;;;;;5.80;3.28;;;19.60;99.90;;;;;;5091190;28;20256;-43
2023/09/06 01:40:44;;;;;;;3.90;3.13;;;19.40;99.90;;;;;;5091111;28;20272;-43
2023/09/06 01:43:09;;;;;;;7.93;3.08;;;19.40;99.90;;;;;;5091164;28;20271;-43
2023/09/06 01:45:43;;;;;;;4.82;3.30;;;19.40;99.90;;;;;;5090851;28;20322;-43
2023/09/06 01:48:08;;;;;;;5.72;3.10;;;19.40;99.90;;;;;;5091129;28;20212;-43
2023/09/06 01:50:34;;;;;;;3.70;3.10;;;19.30;99.90;;;;;;5091545;28;20193;-43
2023/09/06 01:52:59;;;;;;;4.55;3.15;;;19.20;99.90;;;;;;5091205;28;20178;-44
2023/09/06 01:55:25;;;;;;;5.13;2.78;;;19.10;99.90;;;;;;5090953;28;20195;-44
2023/09/06 01:57:51;;;;;;;4.53;3.10;;;19.10;99.90;;;;;;5090915;28;20169;-43
2023/09/06 02:00:25;;;;;;;6.50;3.45;;;19.10;99.90;;;;;;5090933;28;20533;-43
2023/09/06 02:02:51;;;;;;;4.25;3.22;;;19.10;99.90;;;;;;5094402;28;20654;-43
2023/09/06 02:05:16;;;;;;;5.28;3.15;;;19.00;99.90;;;;;;5094561;28;20165;-43
2023/09/06 02:07:43;;;;;;;6.22;3.20;;;19.00;99.90;;;;;;5094745;28;20169;-43
2023/09/06 02:10:09;;;;;;;4.50;3.35;;;19.00;99.90;;;;;;5094782;28;20180;-43
2023/09/06 02:12:35;;;;;;;4.28;3.35;;;18.90;99.90;;;;;;5094859;28;20166;-43
2023/09/06 02:15:00;;;;;;;3.00;2.72;;;18.90;99.90;;;;;;5094489;28;20173;-43
2023/09/06 02:17:26;;;;;;;4.93;3.00;;;18.80;99.90;;;;;;5094184;28;20244;-43
2023/09/06 02:19:52;;;;;;;6.70;3.15;;;18.80;99.90;;;;;;5094550;28;20180;-43
2023/09/06 02:22:18;;;;;;;5.15;3.13;;;18.80;99.90;;;;;;5094229;28;20559;-43
2023/09/06 02:24:43;;;;;;;4.40;3.03;;;18.80;99.90;;;;;;5094477;28;20177;-43
2023/09/06 02:27:13;;;;;;;3.10;2.90;;;18.70;99.90;;;;;;5094135;28;20168;-44
2023/09/06 02:29:40;;;;;;;3.90;3.33;;;18.70;99.90;;;;;;5094114;28;20161;-44
2023/09/06 02:32:06;;;;;;;5.68;3.00;;;18.70;99.90;;;;;;5094084;28;20191;-43
2023/09/06 02:34:32;;;;;;;6.63;3.20;;;18.70;99.90;;;;;;5094520;28;20673;-43
2023/09/06 02:36:58;;;;;;;4.22;2.90;;;18.60;99.90;;;;;;5093965;28;20154;-44
2023/09/06 02:39:27;;;;;;;3.88;3.22;;;18.60;99.90;;;;;;5093901;28;20177;-43
2023/09/06 02:41:53;;;;;;;6.32;3.17;;;18.60;99.90;;;;;;5093807;28;20284;-43
2023/09/06 02:44:18;;;;;;;3.95;2.92;;;18.60;99.90;;;;;;5093648;28;20244;-44
2023/09/06 02:46:44;;;;;;;3.47;2.85;;;18.60;99.90;;;;;;5093822;28;20207;-43
2023/09/06 02:49:13;;;;;;;3.50;3.20;;;18.50;99.90;;;;;;5092597;28;20168;-45
2023/09/06 02:51:42;;;;;;;3.85;2.75;;;18.50;99.90;;;;;;5093686;28;20244;-43
2023/09/06 02:54:08;;;;;;;3.35;3.05;;;18.50;99.90;;;;;;5093617;28;20160;-43
2023/09/06 02:56:37;;;;;;;4.45;2.90;;;18.50;99.90;;;;;;5093980;28;20658;-43
2023/09/06 02:59:03;;;;;;;4.40;3.08;;;18.50;99.90;;;;;;5094189;28;20192;-45
2023/09/06 03:01:30;;;;;;;4.15;3.08;;;18.40;99.90;;;;;;5092929;28;20260;-43
2023/09/06 03:03:58;;;;;;;8.05;3.63;;;;;;;;;;5093120;28;20177;-43
2023/09/06 03:06:33;;;;;;;4.13;3.10;;;;;;;;;;5092752;28;20172;-45
2023/09/06 03:08:59;;;;;;;5.13;3.35;;;18.30;99.90;;;;;;5093610;28;20175;-43
2023/09/06 03:11:25;;;;;;;3.55;3.20;;;18.30;99.90;;;;;;5093054;28;20162;-43
2023/09/06 03:13:55;;;;;;;5.95;3.22;;;18.30;99.90;;;;;;5092739;28;20257;-43
2023/09/06 03:16:24;;;;;;;5.32;3.10;;;18.10;99.90;;;;;;5093502;28;20189;-44
2023/09/06 03:18:51;;;;;;;3.92;3.00;;;18.10;99.90;;;;;;5093180;28;20625;-44
2023/09/06 03:21:17;;;;;;;8.07;3.63;;;18.10;99.90;;;;;;5093396;28;20209;-44
2023/09/06 03:23:45;;;;;;;10.07;3.78;;;18.00;99.90;;;;;;5091768;28;20260;-44
2023/09/06 03:26:12;;;;;;;4.50;2.92;;;18.00;99.90;;;;;;5092981;28;20192;-44
2023/09/06 03:28:40;;;;;;;7.38;3.22;;;18.00;99.90;;;;;;5093022;28;20161;-44
2023/09/06 03:31:08;;;;;;;4.65;3.03;;;18.10;99.90;;;;;;5093164;28;20214;-44
2023/09/06 03:33:35;;;;;;;6.65;2.90;;;18.10;99.90;;;;;;5093601;28;20260;-44
2023/09/06 03:36:07;;;;;;;4.05;3.10;;;18.10;99.90;;;;;;5093450;28;20174;-44
2023/09/06 03:38:34;;;;;;;4.80;3.08;;;18.20;99.90;;;;;;5092973;28;20197;-46
2023/09/06 03:41:02;;;;;;;3.33;3.03;;;18.20;99.90;;;;;;5093040;28;20201;-44
2023/09/06 03:43:32;;;;;;;6.38;4.40;;;18.20;99.90;;;;;;5092912;28;20184;-44
2023/09/06 03:46:04;;;;;;;7.20;4.82;;;18.30;99.90;;;;;;5092659;28;20638;-46
2023/09/06 03:48:30;;;;;;;8.27;4.85;;;18.30;99.90;;;;;;5093130;28;20177;-45
2023/09/06 03:50:59;;;;;;;30.42;15.70;;;18.30;99.90;;;;;;5092505;28;20649;-45
2023/09/06 03:53:26;;;;;;;21.92;9.68;;;18.30;99.90;;;;;;5092635;28;20244;-45
2023/09/06 03:55:57;;;;;;;14.35;7.28;;;18.30;99.90;;;;;;5092327;28;20180;-44
2023/09/06 03:58:23;;;;;;;8.43;5.57;;;18.30;99.90;;;;;;5092352;28;20528;-44
2023/09/06 04:00:51;;;;;;;21.38;10.30;;;18.30;99.90;;;;;;5092257;28;20280;-44
2023/09/06 04:03:18;;;;;;;83.97;40.42;;;18.30;99.90;;;;;;5092306;28;20169;-44
2023/09/06 04:05:45;;;;;;;11.63;6.72;;;18.30;99.90;;;;;;5092536;28;20535;-44
2023/09/06 04:08:11;;;;;;;10.57;5.88;;;18.30;99.90;;;;;;5092497;28;20165;-44
2023/09/06 04:10:38;;;;;;;7.57;3.55;;;18.30;99.90;;;;;;5092219;28;20579;-44
2023/09/06 04:13:09;;;;;;;9.23;5.97;;;18.30;99.90;;;;;;5092437;28;20173;-44
2023/09/06 04:15:36;;;;;;;10.05;6.15;;;18.20;99.90;;;;;;5092087;28;20207;-44
2023/09/06 04:18:04;;;;;;;7.45;4.97;;;18.20;99.90;;;;;;5092423;28;20165;-44
2023/09/06 04:20:31;;;;;;;11.35;7.25;;;18.30;99.90;;;;;;5091864;28;20175;-43
2023/09/06 04:22:58;;;;;;;8.50;4.07;;;18.20;99.90;;;;;;5091654;28;20626;-45
2023/09/06 04:25:26;;;;;;;9.43;5.82;;;18.20;99.90;;;;;;5091266;28;20169;-43
2023/09/06 04:27:56;;;;;;;41.05;22.45;;;18.20;99.90;;;;;;5091923;28;20165;-44
2023/09/06 04:30:23;;;;;;;18.17;10.57;;;18.20;99.90;;;;;;5091858;28;20192;-44
2023/09/06 04:32:48;;;;;;;11.43;6.45;;;18.20;99.90;;;;;;5091795;28;20626;-44
2023/09/06 04:35:15;;;;;;;11.18;5.47;;;18.20;99.90;;;;;;5091846;28;20180;-44
2023/09/06 04:37:41;;;;;;;7.25;5.15;;;18.20;99.90;;;;;;5091990;28;20169;-44
2023/09/06 04:40:14;;;;;;;6.05;4.65;;;18.20;99.90;;;;;;5091941;28;20188;-44
2023/09/06 04:42:40;;;;;;;12.15;7.68;;;18.20;99.90;;;;;;5091613;28;20754;-44
2023/09/06 04:45:10;;;;;;;7.30;5.05;;;18.20;99.90;;;;;;5091509;28;20224;-44
2023/09/06 04:47:39;;;;;;;6.72;4.35;;;18.20;99.90;;;;;;5091822;28;20165;-44
2023/09/06 04:50:06;;;;;;;11.70;7.47;;;18.20;99.90;;;;;;5091661;28;20164;-44
2023/09/06 04:52:36;;;;;;;5.68;3.92;;;18.20;99.90;;;;;;5091964;28;20218;-44
2023/09/06 04:55:02;;;;;;;11.98;6.93;;;18.20;99.90;;;;;;5092114;28;20184;-45
2023/09/06 04:57:28;;;;;;;7.50;5.60;;;;;;;;;;5091045;28;20204;-44
2023/09/06 04:59:54;;;;;;;7.47;5.38;;;18.20;99.90;;;;;;5091629;28;20651;-45
2023/09/06 05:02:19;;;;;;;9.25;4.10;;;18.10;99.90;;;;;;5091284;28;20205;-44
2023/09/06 05:04:45;;;;;;;6.82;3.70;;;18.10;99.90;;;;;;5091442;28;20524;-45
2023/09/06 05:07:11;;;;;;;5.03;3.30;;;18.10;99.90;;;;;;5091416;28;20196;-45
2023/09/06 05:09:36;;;;;;;6.55;4.40;;;18.10;99.90;;;;;;5091432;28;20199;-45
2023/09/06 05:12:03;;;;;;;6.35;4.00;;;;;;;;;;5091803;28;20207;-45
2023/09/06 05:14:29;;;;;;;4.10;3.60;;;18.10;99.90;;;;;;5091585;28;20161;-44
2023/09/06 05:16:55;;;;;;;8.73;4.70;;;18.20;99.90;;;;;;5091225;28;20638;-44
2023/09/06 05:19:25;;;;;;;6.53;4.80;;;18.10;99.90;;;;;;5091229;28;20181;-44
2023/09/06 05:21:51;;;;;;;8.52;5.70;;;18.20;99.90;;;;;;5091429;28;20213;-43
2023/09/06 05:24:16;;;;;;;12.52;7.68;;;18.20;99.90;;;;;;5091308;28;20174;-44
2023/09/06 05:26:42;;;;;;;13.05;8.80;;;18.20;99.90;;;;;;5091208;28;20169;-45
2023/09/06 05:29:08;;;;;;;10.18;6.53;;;18.20;99.90;;;;;;5091299;28;20162;-43
2023/09/06 05:31:33;;;;;;;7.28;4.53;;;18.20;99.90;;;;;;5091894;28;20166;-43
2023/09/06 05:33:59;;;;;;;6.45;5.07;;;18.20;99.90;;;;;;5091162;28;20623;-43
2023/09/06 05:36:25;;;;;;;5.07;4.45;;;;;;;;;;5092883;28;20172;-44
2023/09/06 05:38:50;;;;;;;5.15;4.03;;;18.30;99.90;;;;;;5095161;28;20200;-44
2023/09/06 05:41:16;;;;;;;5.50;4.95;;;18.30;99.90;;;;;;5095044;28;20682;-44
2023/09/06 05:43:42;;;;;;;6.28;4.50;;;18.30;99.90;;;;;;5094957;28;20162;-44
2023/09/06 05:46:07;;;;;;;10.50;7.40;;;18.30;99.90;;;;;;5095156;28;20569;-44
2023/09/06 05:48:33;;;;;;;8.13;4.75;;;18.40;99.90;;;;;;5095231;28;20682;-44
2023/09/06 05:50:58;;;;;;;5.07;4.55;;;18.40;99.90;;;;;;5094846;28;20165;-44
2023/09/06 05:53:26;;;;;;;6.80;4.50;;;18.40;99.90;;;;;;5094844;28;20726;-44
2023/09/06 05:55:51;;;;;;;5.75;4.28;;;18.40;99.90;;;;;;5094965;28;20226;-43
2023/09/06 05:58:17;;;;;;;5.57;3.70;;;18.50;99.90;;;;;;5094688;28;20165;-44
2023/09/06 06:00:43;;;;;;;8.55;4.13;;;18.50;99.90;;;;;;5094609;28;20161;-44
2023/09/06 06:03:10;;;;;;;8.93;3.92;;;18.50;99.90;;;;;;5094915;28;20536;-43
2023/09/06 06:05:36;;;;;;;5.28;3.97;;;18.50;99.90;;;;;;5094535;28;20718;-43
2023/09/06 06:08:01;;;;;;;7.50;3.95;;;18.50;99.90;;;;;;5095068;28;20256;-44
2023/09/06 06:10:34;;;;;;;7.00;4.05;;;18.60;99.90;;;;;;5094731;28;20170;-44
2023/09/06 06:13:00;;;;;;;6.75;3.45;;;18.60;99.90;;;;;;5095116;28;20213;-44
2023/09/06 06:15:25;;;;;;;7.25;4.45;;;18.70;99.90;;;;;;5094669;28;20252;-43
2023/09/06 06:17:51;;;;;;;4.75;3.55;;;18.70;99.90;;;;;;5094582;28;20169;-44
2023/09/06 06:20:17;;;;;;;6.55;3.70;;;18.80;99.90;;;;;;5094569;28;20226;-43
2023/09/06 06:22:43;;;;;;;4.47;3.50;;;18.90;99.90;;;;;;5094538;28;20614;-44
2023/09/06 06:25:12;;;;;;;4.20;3.65;;;18.90;99.90;;;;;;5094279;28;20630;-44
2023/09/06 06:27:38;;;;;;;4.45;3.53;;;19.00;99.90;;;;;;5094126;28;20172;-44
2023/09/06 06:30:06;;;;;;;9.43;3.60;;;19.00;99.90;;;;;;5094183;28;20214;-44
2023/09/06 06:32:32;;;;;;;6.05;3.47;;;19.10;99.90;;;;;;5094467;28;20218;-44
2023/09/06 06:35:01;;;;;;;5.57;3.40;;;19.20;99.90;;;;;;5094027;28;20185;-44
2023/09/06 06:37:27;;;;;;;4.43;3.53;;;19.30;99.90;;;;;;5094063;28;20184;-44
2023/09/06 06:39:53;;;;;;;3.83;3.38;;;19.40;99.90;;;;;;5093856;28;20630;-44
2023/09/06 06:42:19;;;;;;;5.70;3.30;;;;;;;;;;5093805;28;20207;-44
2023/09/06 06:44:46;;;;;;;5.88;3.67;;;19.60;99.90;;;;;;5093780;28;20311;-44
2023/09/06 06:47:12;;;;;;;5.30;3.67;;;19.70;99.90;;;;;;5093635;28;20178;-43
2023/09/06 06:49:37;;;;;;;9.45;3.83;;;19.70;99.90;;;;;;5093383;28;20278;-44
2023/09/06 06:52:03;;;;;;;4.35;3.20;;;19.80;99.90;;;;;;5094108;28;20158;-44
2023/09/06 06:54:28;;;;;;;4.57;3.53;;;19.80;99.90;;;;;;5094348;28;20161;-43
2023/09/06 06:56:54;;;;;;;5.20;2.90;;;19.90;99.90;;;;;;5093588;28;20218;-44
2023/09/06 06:59:19;;;;;;;8.80;3.05;;;19.90;99.90;;;;;;5092786;28;20244;-44
2023/09/06 07:01:45;;;;;;;4.45;2.85;;;20.10;99.90;;;;;;5093528;28;20294;-44
2023/09/06 07:04:11;;;;;;;5.07;3.20;;;20.20;99.90;;;;;;5093788;28;20597;-44
2023/09/06 07:06:36;;;;;;;8.63;3.20;;;20.40;99.90;;;;;;5093664;28;20575;-43
2023/09/06 07:09:03;;;;;;;4.57;3.05;;;20.40;99.90;;;;;;5093924;28;20631;-43
2023/09/06 07:11:30;;;;;;;6.18;3.35;;;20.60;99.90;;;;;;5093729;28;20176;-45
2023/09/06 07:13:55;;;;;;;3.92;3.20;;;20.60;99.90;;;;;;5093308;28;20707;-44
2023/09/06 07:16:21;;;;;;;4.80;3.38;;;20.60;99.90;;;;;;5093369;28;20197;-44
2023/09/06 07:18:47;;;;;;;4.97;3.10;;;20.80;99.90;;;;;;5093237;28;20169;-43
2023/09/06 07:21:14;;;;;;;2.97;2.67;;;20.90;99.90;;;;;;5093232;28;20197;-43
2023/09/06 07:23:40;;;;;;;5.88;3.10;;;20.90;99.90;;;;;;5093337;28;20181;-44
2023/09/06 07:26:05;;;;;;;6.30;2.60;;;21.00;99.90;;;;;;5093005;28;20574;-44
2023/09/06 07:28:45;;;;;;;5.93;2.80;;;21.00;99.90;;;;;;5093394;28;20219;-45
2023/09/06 07:31:12;;;;;;;4.28;3.00;;;21.00;99.90;;;;;;5092890;28;20577;-44
2023/09/06 07:33:38;;;;;;;4.80;2.88;;;21.10;99.90;;;;;;5092998;28;20162;-43
2023/09/06 07:36:04;;;;;;;4.07;2.58;;;21.20;99.90;;;;;;5092810;28;20158;-43
2023/09/06 07:38:30;;;;;;;7.25;3.00;;;21.40;99.90;;;;;;5093216;28;20173;-43
2023/09/06 07:41:07;;;;;;;5.32;2.72;;;21.50;99.90;;;;;;5092679;28;20563;-43
2023/09/06 07:43:35;;;;;;;6.40;3.13;;;21.60;99.90;;;;;;5092920;28;20176;-44
2023/09/06 07:46:01;;;;;;;4.70;2.50;;;21.70;99.90;;;;;;5092074;28;20646;-43
2023/09/06 07:48:30;;;;;;;6.00;3.15;;;21.70;99.90;;;;;;5092633;28;20232;-44
2023/09/06 07:50:59;;;;;;;3.35;3.05;;;21.80;99.90;;;;;;5092543;28;20271;-45
2023/09/06 07:53:28;;;;;;;7.32;3.10;;;21.90;99.90;;;;;;5092435;28;20255;-45
2023/09/06 07:55:55;;;;;;;7.88;3.15;;;22.00;99.90;;;;;;5092500;28;20176;-45
2023/09/06 07:58:21;;;;;;;6.93;3.15;;;;;;;;;;5092412;28;20198;-45
2023/09/06 08:00:47;;;;;;;7.30;3.10;;;22.30;99.90;;;;;;5092157;28;20248;-45
2023/09/06 08:03:14;;;;;;;3.50;2.60;;;22.40;99.90;;;;;;5092373;28;20170;-45
2023/09/06 08:05:40;;;;;;;6.80;3.08;;;22.50;99.90;;;;;;5092203;28;20657;-46
2023/09/06 08:08:07;;;;;;;6.10;2.60;;;22.50;99.90;;;;;;5092336;28;20173;-48
2023/09/06 08:10:41;;;;;;;6.80;2.83;;;22.60;99.90;;;;;;5092878;28;20166;-46
2023/09/06 08:13:07;;;;;;;4.60;2.97;;;22.70;99.90;;;;;;5092297;28;20164;-45
2023/09/06 08:15:35;;;;;;;6.03;2.50;;;22.80;99.90;;;;;;5092452;28;20563;-46
2023/09/06 08:18:03;;;;;;;5.47;2.80;;;22.90;99.90;;;;;;5092811;28;20173;-43
2023/09/06 08:20:29;;;;;;;6.57;2.85;;;23.00;99.90;;;;;;5092464;28;20219;-44
2023/09/06 08:22:54;;;;;;;5.00;3.08;;;23.10;99.90;;;;;;5092037;28;20205;-44
2023/09/06 08:25:21;;;;;;;6.18;3.35;;;23.20;99.90;;;;;;5091995;28;20557;-43
2023/09/06 08:27:46;;;;;;;7.22;3.00;;;23.30;99.90;;;;;;5090729;28;20222;-44
2023/09/06 08:30:15;;;;;;;5.70;3.03;;;23.40;99.90;;;;;;5091830;28;20165;-44
2023/09/06 08:32:41;;;;;;;3.42;2.90;;;;;;;;;;5092145;28;20176;-44
2023/09/06 08:35:08;;;;;;;7.68;3.05;;;23.80;99.90;;;;;;5090479;28;20219;-44
2023/09/06 08:37:34;;;;;;;6.10;3.25;;;23.90;99.90;;;;;;5091878;28;20619;-44
2023/09/06 08:40:05;;;;;;;4.28;2.92;;;23.90;99.90;;;;;;5092316;28;20177;-44
2023/09/06 08:42:35;;;;;;;6.68;3.08;;;24.00;99.90;;;;;;5092055;28;20205;-44
2023/09/06 08:45:03;;;;;;;6.28;2.90;;;24.00;99.90;;;;;;5092045;28;20229;-44
2023/09/06 08:47:29;;;;;;;9.02;3.28;;;24.10;99.90;;;;;;5092074;28;20220;-44
2023/09/06 08:49:55;;;;;;;3.60;3.17;;;25.20;99.90;;;;;;5090459;28;20161;-44
2023/09/06 08:52:21;;;;;;;4.90;2.65;;;24.20;99.90;;;;;;5091646;28;20169;-44
2023/09/06 08:54:50;;;;;;;7.53;3.17;;;24.40;99.90;;;;;;5091912;28;20173;-44
2023/09/06 08:57:16;;;;;;;4.13;2.92;;;24.50;99.90;;;;;;5091533;28;20532;-44
2023/09/06 08:59:42;;;;;;;4.97;3.22;;;24.50;99.90;;;;;;5091655;28;20169;-47
2023/09/06 09:02:12;;;;;;;4.10;2.85;;;24.70;99.90;;;;;;5091653;28;20205;-47
2023/09/06 09:04:42;;;;;;;4.47;2.70;;;24.80;99.90;;;;;;5091379;28;20256;-49
2023/09/06 09:07:16;;;;;;;6.45;3.33;;;24.90;99.90;;;;;;5091424;28;20536;-45
2023/09/06 09:10:04;;;;;;;3.40;3.10;;;25.00;99.90;;;;;;5091529;28;20629;-45
2023/09/06 09:12:31;;;;;;;6.22;3.35;;;25.20;99.90;;;;;;5095307;28;20187;-47
2023/09/06 09:14:58;;;;;;;6.97;3.60;;;25.30;99.90;;;;;;5095663;28;20221;-49
2023/09/06 09:17:25;;;;;;;4.22;3.03;;;25.40;99.90;;;;;;5095557;28;20166;-46
2023/09/06 09:19:57;;;;;;;4.70;3.15;;;25.60;99.90;;;;;;5095429;28;20218;-49
2023/09/06 09:22:32;;;;;;;4.88;3.38;;;25.60;99.90;;;;;;5095402;28;20673;-49
2023/09/06 09:25:08;;;;;;;6.80;3.53;;;25.80;99.90;;;;;;5095602;28;20172;-46
2023/09/06 09:27:37;;;;;;;7.32;3.33;;;25.80;99.90;;;;;;5095274;28;20588;-44
2023/09/06 09:30:04;;;;;;;6.97;3.22;;;26.10;99.90;;;;;;5095825;28;20185;-45
2023/09/06 09:32:33;;;;;;;4.85;3.10;;;26.00;99.90;;;;;;5095758;28;20191;-44
2023/09/06 09:34:58;;;;;;;4.57;3.65;;;26.00;99.90;;;;;;5095644;28;20172;-45
2023/09/06 09:37:29;;;;;;;5.03;3.55;;;26.10;99.90;;;;;;5095190;28;20161;-44
2023/09/06 09:39:57;;;;;;;5.45;3.58;;;26.00;99.90;;;;;;5095443;28;20165;-44
2023/09/06 09:42:23;;;;;;;4.80;3.58;;;26.10;99.90;;;;;;5095000;28;20764;-44
2023/09/06 09:45:11;;;;;;;6.10;3.28;;;26.10;99.90;;;;;;5094839;28;20303;-44
2023/09/06 09:47:36;;;;;;;4.93;3.10;;;26.10;99.90;;;;;;5095195;28;20177;-44
2023/09/06 09:50:03;;;;;;;3.72;2.95;;;26.30;99.90;;;;;;5095665;28;20570;-46
2023/09/06 09:52:31;;;;;;;3.75;3.20;;;26.30;99.90;;;;;;5095245;28;20220;-44
2023/09/06 09:54:59;;;;;;;4.88;3.53;;;26.60;99.90;;;;;;5095091;28;20233;-44
2023/09/06 09:57:26;;;;;;;4.90;3.00;;;26.70;99.90;;;;;;5094761;28;20306;-45
2023/09/06 09:59:53;;;;;;;5.82;3.40;;;26.70;99.90;;;;;;5094727;28;20247;-44
2023/09/06 10:02:22;;;;;;;4.70;3.53;;;26.80;99.90;;;;;;5094544;28;20208;-45
2023/09/06 10:04:50;;;;;;;4.53;3.25;;;26.90;99.90;;;;;;5094934;28;20242;-44
2023/09/06 10:07:19;;;;;;;6.05;3.58;;;26.80;99.90;;;;;;5094666;28;20160;-44
2023/09/06 10:09:47;;;;;;;6.05;3.40;;;26.80;99.90;;;;;;5094841;28;20256;-45
2023/09/06 10:12:14;;;;;;;6.10;3.10;;;26.70;99.90;;;;;;5094447;28;20172;-44
2023/09/06 10:14:41;;;;;;;3.72;3.35;;;26.90;99.90;;;;;;5093946;28;20202;-44
2023/09/06 10:17:11;;;;;;;5.45;3.28;;;27.10;99.90;;;;;;5094401;28;20173;-44
2023/09/06 10:19:37;;;;;;;5.05;2.97;;;27.20;99.90;;;;;;5094449;28;20641;-45
2023/09/06 10:22:05;;;;;;;3.65;3.30;;;27.20;99.90;;;;;;5093826;28;20244;-44
2023/09/06 10:24:33;;;;;;;6.65;3.45;;;27.40;99.90;;;;;;5094157;28;20175;-44
2023/09/06 10:26:59;;;;;;;6.43;3.75;;;27.40;99.90;;;;;;5094663;28;20157;-44
2023/09/06 10:29:28;;;;;;;4.28;3.17;;;27.60;99.90;;;;;;5094175;28;20219;-45
2023/09/06 10:31:58;;;;;;;4.97;4.15;;;27.50;99.70;;;;;;5094085;28;20656;-45
2023/09/06 10:34:24;;;;;;;6.18;3.67;;;27.60;99.90;;;;;;5094144;28;20238;-45
2023/09/06 10:36:55;;;;;;;7.70;4.38;;;27.60;99.60;;;;;;5094170;28;20244;-45
2023/09/06 10:39:22;;;;;;;5.35;4.25;;;27.80;98.70;;;;;;5094374;28;20218;-44
2023/09/06 10:42:13;;;;;;;6.25;4.32;;;27.80;97.80;;;;;;5094129;28;20283;-46
2023/09/06 10:44:54;;;;;;;8.05;4.80;;;28.00;96.30;;;;;;5093812;28;20615;-45
2023/09/06 10:47:32;;;;;;;7.05;3.70;;;28.00;96.80;;;;;;5094224;28;20175;-45
2023/09/06 10:50:12;;;;;;;8.85;5.95;;;28.20;95.90;;;;;;5094364;28;20168;-46
2023/09/06 10:52:56;;;;;;;9.95;4.90;;;28.30;96.00;;;;;;5092894;28;20177;-45
2023/09/06 10:55:24;;;;;;;5.60;3.47;;;28.20;93.50;;;;;;5093736;28;20584;-46
2023/09/06 10:58:11;;;;;;;4.88;3.60;;;28.10;93.90;;;;;;5093606;28;20210;-45
2023/09/06 11:00:37;;;;;;;6.85;4.15;;;28.30;94.00;;;;;;5093721;28;20244;-44
2023/09/06 11:03:09;;;;;;;8.27;5.95;;;28.30;93.90;;;;;;5092339;28;20283;-45
2023/09/06 11:05:46;;;;;;;3.83;3.42;;;28.40;92.60;;;;;;5093624;28;20240;-44
2023/09/06 11:08:25;;;;;;;10.38;6.93;;;28.30;92.60;;;;;;5093872;28;20179;-45
2023/09/06 11:10:53;;;;;;;12.02;7.20;;;28.40;92.50;;;;;;5092208;28;20214;-45
2023/09/06 11:13:19;;;;;;;7.72;4.47;;;28.70;92.40;;;;;;5075521;28;20578;-45
2023/09/06 11:15:48;;;;;;;5.80;4.70;;;28.70;91.80;;;;;;5093629;28;20168;-46
2023/09/06 11:18:14;;;;;;;8.65;5.65;;;28.70;91.50;;;;;;5093388;28;20618;-46
2023/09/06 11:20:47;;;;;;;8.30;4.93;;;28.70;91.20;;;;;;5093529;28;20214;-49
2023/09/06 11:23:12;;;;;;;6.43;4.60;;;28.90;91.30;;;;;;5093202;28;20208;-48
2023/09/06 11:25:38;;;;;;;5.40;4.05;;;29.10;91.80;;;;;;5093106;28;20196;-45
2023/09/06 11:28:16;;;;;;;6.68;4.28;;;29.10;91.70;;;;;;5093013;28;20532;-45
2023/09/06 11:30:44;;;;;;;6.68;4.80;;;29.20;91.90;;;;;;5093332;28;20172;-45
2023/09/06 11:33:11;;;;;;;6.03;4.47;;;29.20;92.00;;;;;;5092883;28;20646;-44
2023/09/06 11:35:40;;;;;;;8.85;4.95;;;29.30;91.50;;;;;;5092744;28;20200;-44
2023/09/06 11:38:10;;;;;;;5.72;4.32;;;29.30;92.50;;;;;;5092784;28;20164;-44
2023/09/06 11:40:37;;;;;;;5.45;3.90;;;29.20;92.60;;;;;;5092854;28;20183;-44
2023/09/06 11:43:10;;;;;;;9.88;4.88;;;29.20;91.60;;;;;;5092978;28;20673;-44
2023/09/06 11:45:36;;;;;;;14.23;5.57;;;29.40;92.60;;;;;;5092530;28;20701;-45
2023/09/06 11:48:07;;;;;;;9.98;5.72;;;29.50;92.30;;;;;;5093078;28;20171;-44
2023/09/06 11:50:35;;;;;;;7.07;4.75;;;29.30;92.40;;;;;;5092649;28;20161;-45
2023/09/06 11:53:04;;;;;;;6.53;4.82;;;29.50;90.80;;;;;;5092986;28;20214;-45
2023/09/06 11:55:33;;;;;;;6.60;4.65;;;29.40;91.30;;;;;;5092875;28;20560;-44
2023/09/06 11:57:59;;;;;;;4.65;3.80;;;29.50;91.40;;;;;;5093112;28;20165;-44
2023/09/06 12:00:38;;;;;;;4.53;3.40;;;29.20;90.50;;;;;;5092437;28;20242;-46
2023/09/06 12:03:08;;;;;;;16.65;7.25;;;29.40;92.80;;;;;;5092203;28;20673;-46
2023/09/06 12:05:40;;;;;;;19.10;11.02;;;29.40;91.10;;;;;;5092620;28;20169;-45
2023/09/06 12:08:07;;;;;;;8.48;4.90;;;29.50;90.80;;;;;;5092378;28;20163;-44
2023/09/06 12:10:34;;;;;;;7.25;4.93;;;29.50;90.30;;;;;;5092194;28;20631;-45
2023/09/06 12:13:00;;;;;;;10.75;7.10;;;29.70;91.90;;;;;;5092681;28;20168;-45
2023/09/06 12:15:27;;;;;;;7.30;4.43;;;29.60;91.50;;;;;;5090898;28;20210;-45
2023/09/06 12:17:54;;;;;;;6.30;4.20;;;29.50;90.60;;;;;;5092073;28;20167;-44
2023/09/06 12:20:23;;;;;;;8.00;4.35;;;29.60;91.20;;;;;;5092347;28;20537;-44
2023/09/06 12:22:51;;;;;;;9.20;6.20;;;29.60;90.50;;;;;;5091993;28;20652;-47
2023/09/06 12:25:20;;;;;;;5.72;4.53;;;29.70;90.60;;;;;;5092318;28;20176;-45
2023/09/06 12:27:47;;;;;;;4.68;4.05;;;29.70;90.60;;;;;;5090828;28;20169;-48
2023/09/06 12:30:18;;;;;;;6.78;4.10;;;29.80;91.40;;;;;;5091939;28;20157;-44
2023/09/06 12:32:45;;;;;;;9.63;4.90;;;30.00;91.60;;;;;;5092079;28;20294;-44
2023/09/06 12:35:11;;;;;;;7.75;4.30;;;29.90;90.60;;;;;;5091949;28;20157;-44
2023/09/06 12:37:37;;;;;;;10.80;5.25;;;29.90;90.00;;;;;;5091836;28;20694;-44
2023/09/06 12:40:09;;;;;;;23.02;9.73;;;29.80;90.00;;;;;;5091818;28;20160;-44
2023/09/06 12:42:44;;;;;;;6.85;4.95;;;29.80;89.60;;;;;;5091958;28;20223;-44
2023/09/06 12:45:27;;;;;;;14.05;6.97;;;29.90;90.90;;;;;;5091237;28;20216;-44
2023/09/06 12:47:54;;;;;;;7.35;3.80;;;30.00;91.10;;;;;;5091947;28;20194;-45
2023/09/06 12:50:20;;;;;;;22.58;10.63;;;29.90;89.60;;;;;;5091938;28;20243;-44
2023/09/06 12:52:49;;;;;;;12.27;6.45;;;30.10;89.10;;;;;;5091972;28;20604;-47